createdAt,value
2022-08-26T00:01:37.487Z,11.00
2022-08-26T00:04:03.767Z,11.05
2022-08-26T00:06:30.739Z,11.88
2022-08-26T00:08:57.516Z,13.80
2022-08-26T00:11:26.810Z,11.00
2022-08-26T00:13:53.461Z,12.25
2022-08-26T00:16:19.835Z,12.15
2022-08-26T00:18:46.281Z,11.32
2022-08-26T00:21:12.602Z,13.50
2022-08-26T00:23:39.387Z,13.15
2022-08-26T00:26:06.474Z,12.55
2022-08-26T00:28:34.838Z,11.32
2022-08-26T00:31:01.194Z,12.70
2022-08-26T00:33:27.523Z,12.82
2022-08-26T00:35:53.863Z,13.10
2022-08-26T00:38:20.339Z,11.57
2022-08-26T00:40:46.796Z,12.23
2022-08-26T00:43:13.102Z,11.48
2022-08-26T00:45:41.533Z,10.52
2022-08-26T00:48:08.957Z,11.75
2022-08-26T00:50:35.371Z,13.23
2022-08-26T00:53:01.634Z,11.75
2022-08-26T00:55:37.845Z,11.07
2022-08-26T00:58:04.365Z,9.07
2022-08-26T01:00:30.675Z,10.23
2022-08-26T01:02:57.589Z,12.23
2022-08-26T01:05:24.172Z,11.68
2022-08-26T01:07:50.441Z,11.63
2022-08-26T01:10:16.795Z,9.57
2022-08-26T01:12:43.069Z,10.90
2022-08-26T01:15:09.452Z,10.43
2022-08-26T01:17:36.353Z,11.95
2022-08-26T01:20:02.739Z,10.77
2022-08-26T01:22:29.293Z,10.48
2022-08-26T01:24:55.848Z,10.73
2022-08-26T01:27:22.461Z,12.70
2022-08-26T01:29:49.682Z,12.52
2022-08-26T01:32:15.942Z,9.75
2022-08-26T01:34:42.200Z,13.85
2022-08-26T01:37:08.497Z,11.13
2022-08-26T01:39:40.315Z,12.07
2022-08-26T01:42:10.443Z,10.20
2022-08-26T01:44:36.904Z,12.05
2022-08-26T01:47:03.373Z,11.70
2022-08-26T01:49:32.872Z,11.45
2022-08-26T01:52:00.732Z,11.40
2022-08-26T01:54:27.039Z,11.80
2022-08-26T01:56:53.426Z,10.82
2022-08-26T01:59:19.745Z,11.68
2022-08-26T02:01:46.726Z,12.73
2022-08-26T02:04:13.354Z,11.77
2022-08-26T02:06:39.656Z,11.38
2022-08-26T02:09:06.164Z,10.50
2022-08-26T02:11:32.674Z,10.93
2022-08-26T02:13:59.037Z,10.95
2022-08-26T02:16:25.447Z,12.55
2022-08-26T02:18:53.325Z,11.32
2022-08-26T02:21:19.742Z,12.35
2022-08-26T02:23:50.534Z,10.90
2022-08-26T02:26:18.050Z,11.18
2022-08-26T02:28:45.799Z,12.93
2022-08-26T02:31:12.578Z,11.95
2022-08-26T02:33:43.166Z,10.80
2022-08-26T02:36:09.651Z,11.30
2022-08-26T02:38:38.642Z,11.20
2022-08-26T02:41:06.176Z,12.07
2022-08-26T02:43:34.451Z,11.63
2022-08-26T02:46:02.152Z,11.73
2022-08-26T02:48:29.062Z,12.98
2022-08-26T02:50:55.378Z,11.48
2022-08-26T02:53:25.250Z,13.18
2022-08-26T02:55:52.021Z,12.13
2022-08-26T02:58:18.349Z,11.68
2022-08-26T03:00:53.321Z,11.77
2022-08-26T03:03:20.026Z,14.00
2022-08-26T03:05:48.939Z,12.35
2022-08-26T03:08:15.413Z,11.93
2022-08-26T03:10:41.897Z,11.75
2022-08-26T03:13:08.374Z,12.73
2022-08-26T03:15:34.939Z,12.70
2022-08-26T03:18:01.303Z,10.73
2022-08-26T03:20:27.712Z,12.70
2022-08-26T03:22:53.992Z,12.25
2022-08-26T03:25:22.537Z,13.73
2022-08-26T03:27:50.135Z,13.70
2022-08-26T03:30:16.456Z,12.55
2022-08-26T03:32:42.928Z,13.10
2022-08-26T03:35:09.297Z,12.43
2022-08-26T03:37:35.747Z,15.82
2022-08-26T03:40:02.352Z,11.88
2022-08-26T03:42:28.712Z,13.68
2022-08-26T03:44:55.113Z,15.00
2022-08-26T03:47:21.467Z,13.40
2022-08-26T03:49:47.789Z,11.90
2022-08-26T03:52:14.217Z,13.43
2022-08-26T03:54:40.550Z,12.75
2022-08-26T03:57:09.827Z,13.43
2022-08-26T03:59:36.156Z,13.90
2022-08-26T04:02:03.291Z,13.43
2022-08-26T04:04:34.968Z,13.60
2022-08-26T04:07:01.268Z,14.00
2022-08-26T04:09:27.747Z,12.98
2022-08-26T04:11:54.059Z,13.52
2022-08-26T04:14:20.415Z,12.23
2022-08-26T04:16:46.725Z,13.07
2022-08-26T04:19:13.314Z,11.15
2022-08-26T04:21:39.604Z,12.68
2022-08-26T04:24:09.222Z,14.07
2022-08-26T04:26:39.356Z,13.50
2022-08-26T04:29:08.919Z,14.60
2022-08-26T04:31:35.250Z,14.15
2022-08-26T04:34:01.619Z,15.23
2022-08-26T04:36:27.841Z,12.95
2022-08-26T04:38:55.528Z,16.33
2022-08-26T04:41:21.769Z,15.63
2022-08-26T04:43:48.007Z,13.75
2022-08-26T04:46:14.367Z,14.63
2022-08-26T04:48:40.762Z,15.63
2022-08-26T04:51:07.414Z,13.80
2022-08-26T04:53:34.141Z,16.00
2022-08-26T04:56:00.777Z,14.27
2022-08-26T04:58:27.013Z,14.82
2022-08-26T05:00:53.283Z,15.07
2022-08-26T05:03:20.032Z,16.80
2022-08-26T05:05:46.272Z,16.33
2022-08-26T05:08:12.572Z,15.30
2022-08-26T05:10:38.968Z,14.77
2022-08-26T05:13:11.149Z,14.85
2022-08-26T05:15:38.451Z,12.82
2022-08-26T05:18:04.717Z,15.45
2022-08-26T05:20:30.944Z,13.13
2022-08-26T05:22:57.177Z,15.57
2022-08-26T05:25:23.544Z,13.55
2022-08-26T05:27:53.618Z,15.43
2022-08-26T05:30:19.918Z,13.25
2022-08-26T05:32:46.166Z,13.63
2022-08-26T05:35:12.402Z,14.55
2022-08-26T05:37:38.625Z,13.55
2022-08-26T05:40:05.002Z,13.32
2022-08-26T05:42:31.306Z,16.20
2022-08-26T05:44:57.639Z,14.45
2022-08-26T05:47:24.444Z,15.20
2022-08-26T05:49:51.674Z,14.32
2022-08-26T05:52:18.139Z,13.27
2022-08-26T05:54:45.125Z,14.85
2022-08-26T05:57:14.009Z,15.43
2022-08-26T05:59:40.227Z,14.25
2022-08-26T06:02:08.194Z,15.30
2022-08-26T06:04:35.013Z,13.63
2022-08-26T06:07:01.344Z,13.80
2022-08-26T06:09:27.858Z,12.73
2022-08-26T06:11:54.133Z,13.82
2022-08-26T06:14:20.377Z,13.45
2022-08-26T06:16:46.594Z,15.57
2022-08-26T06:19:12.819Z,13.82
2022-08-26T06:21:39.043Z,14.80
2022-08-26T06:24:05.270Z,19.70
2022-08-26T06:26:31.535Z,14.65
2022-08-26T06:28:57.828Z,20.55
2022-08-26T06:31:24.086Z,14.65
2022-08-26T06:33:50.541Z,12.95
2022-08-26T06:36:16.759Z,13.60
2022-08-26T06:38:44.891Z,13.85
2022-08-26T06:41:11.107Z,12.77
2022-08-26T06:43:37.335Z,12.63
2022-08-26T06:46:04.264Z,12.60
2022-08-26T06:48:31.303Z,12.27
2022-08-26T06:50:57.624Z,12.10
2022-08-26T06:53:24.579Z,13.27
2022-08-26T06:55:51.882Z,14.70
2022-08-26T06:58:18.209Z,13.13
2022-08-26T07:00:47.240Z,13.73
2022-08-26T07:03:14.042Z,12.35
2022-08-26T07:05:40.383Z,19.88
2022-08-26T07:08:06.633Z,15.82
2022-08-26T07:10:32.916Z,13.70
2022-08-26T07:12:59.295Z,12.82
2022-08-26T07:15:31.037Z,13.32
2022-08-26T07:17:57.867Z,11.75
2022-08-26T07:20:24.282Z,15.25
2022-08-26T07:22:51.509Z,12.30
2022-08-26T07:25:17.889Z,14.85
2022-08-26T07:27:45.994Z,12.05
2022-08-26T07:30:20.396Z,12.52
2022-08-26T07:32:46.654Z,15.23
2022-08-26T07:35:13.030Z,12.75
2022-08-26T07:37:39.571Z,13.27
2022-08-26T07:40:05.996Z,11.65
2022-08-26T07:42:33.422Z,13.65
2022-08-26T07:45:01.087Z,12.95
2022-08-26T07:47:27.457Z,12.63
2022-08-26T07:49:53.736Z,13.18
2022-08-26T07:52:25.992Z,12.00
2022-08-26T07:54:53.274Z,11.73
2022-08-26T07:57:19.620Z,10.07
2022-08-26T07:59:47.439Z,12.32
2022-08-26T08:02:13.744Z,12.90
2022-08-26T08:04:40.036Z,11.32
2022-08-26T08:07:07.421Z,11.85
2022-08-26T08:09:37.946Z,10.43
2022-08-26T08:12:07.075Z,13.00
2022-08-26T08:14:33.499Z,12.43
2022-08-26T08:16:59.839Z,12.23
2022-08-26T08:19:33.086Z,11.13
2022-08-26T08:22:04.389Z,12.98
2022-08-26T08:24:43.403Z,9.98
2022-08-26T08:27:10.328Z,12.38
2022-08-26T08:29:36.817Z,11.07
2022-08-26T08:32:03.290Z,10.68
2022-08-26T08:34:30.620Z,13.32
2022-08-26T08:36:57.127Z,10.75
2022-08-26T08:39:23.822Z,11.00
2022-08-26T08:41:50.048Z,8.80
2022-08-26T08:44:17.689Z,9.35
2022-08-26T08:46:44.243Z,10.48
2022-08-26T08:49:10.593Z,10.98
2022-08-26T08:51:36.965Z,11.05
2022-08-26T08:54:03.673Z,10.40
2022-08-26T08:56:30.477Z,11.35
2022-08-26T08:58:56.952Z,11.45
2022-08-26T09:01:23.306Z,8.57
2022-08-26T09:03:49.564Z,9.93
2022-08-26T09:06:15.793Z,10.60
2022-08-26T09:08:42.702Z,9.75
2022-08-26T09:11:08.957Z,8.88
2022-08-26T09:13:35.919Z,9.18
2022-08-26T09:16:02.146Z,9.73
2022-08-26T09:18:28.392Z,8.80
2022-08-26T09:20:54.619Z,9.45
2022-08-26T09:23:20.869Z,11.63
2022-08-26T09:25:47.117Z,10.10
2022-08-26T09:28:13.893Z,10.50
2022-08-26T09:30:41.979Z,9.85
2022-08-26T09:33:11.195Z,10.30
2022-08-26T09:35:37.635Z,9.73
2022-08-26T09:38:05.442Z,9.25
2022-08-26T09:40:35.452Z,10.50
2022-08-26T09:43:02.149Z,8.98
2022-08-26T09:45:30.413Z,8.50
2022-08-26T09:47:56.725Z,10.18
2022-08-26T09:50:29.118Z,8.43
2022-08-26T09:52:55.667Z,9.63
2022-08-26T09:55:21.957Z,9.88
2022-08-26T09:57:48.328Z,10.38
2022-08-26T10:00:14.661Z,8.80
2022-08-26T10:02:41.066Z,11.98
2022-08-26T10:05:13.874Z,9.43
2022-08-26T10:07:40.176Z,7.78
2022-08-26T10:10:06.633Z,8.70
2022-08-26T10:12:32.964Z,8.13
2022-08-26T10:14:59.895Z,9.30
2022-08-26T10:17:26.726Z,9.43
2022-08-26T10:19:57.590Z,8.83
2022-08-26T10:22:24.236Z,9.87
2022-08-26T10:24:54.499Z,9.35
2022-08-26T10:27:21.393Z,9.43
2022-08-26T10:29:47.719Z,9.73
2022-08-26T10:32:14.095Z,9.98
2022-08-26T10:34:40.751Z,7.13
2022-08-26T10:37:13.696Z,9.73
2022-08-26T10:39:41.540Z,10.05
2022-08-26T10:42:07.868Z,10.50
2022-08-26T10:44:37.188Z,9.00
2022-08-26T10:47:03.451Z,9.60
2022-08-26T10:49:31.585Z,10.00
2022-08-26T10:51:58.428Z,9.32
2022-08-26T10:54:24.884Z,9.27
2022-08-26T10:56:51.564Z,8.18
2022-08-26T10:59:19.061Z,8.88
2022-08-26T11:01:47.094Z,9.02
2022-08-26T11:04:17.200Z,10.40
2022-08-26T11:06:43.688Z,11.07
2022-08-26T11:09:10.036Z,9.45
2022-08-26T11:11:36.364Z,11.05
2022-08-26T11:14:02.807Z,9.85
2022-08-26T11:16:29.170Z,9.95
2022-08-26T11:18:55.640Z,10.95
2022-08-26T11:21:22.280Z,10.82
2022-08-26T11:23:55.085Z,10.82
2022-08-26T11:26:35.970Z,11.27
2022-08-26T11:29:13.449Z,11.10
2022-08-26T11:31:40.183Z,14.07
2022-08-26T11:34:06.597Z,11.07
2022-08-26T11:36:33.045Z,10.98
2022-08-26T11:39:00.053Z,11.85
2022-08-26T11:41:26.360Z,10.32
2022-08-26T11:43:52.798Z,10.80
2022-08-26T11:46:19.375Z,13.13
2022-08-26T11:48:45.736Z,11.27
2022-08-26T11:51:12.161Z,7.20
2022-08-26T11:53:39.829Z,7.50
2022-08-26T11:56:06.074Z,8.93
2022-08-26T11:58:32.389Z,10.23
2022-08-26T12:00:58.591Z,3.65
2022-08-26T12:03:24.926Z,4.10
2022-08-26T12:05:51.234Z,4.65
2022-08-26T12:08:17.562Z,5.60
2022-08-26T12:10:43.833Z,6.45
2022-08-26T12:13:10.209Z,7.85
2022-08-26T12:15:36.742Z,7.15
2022-08-26T12:18:03.020Z,7.90
2022-08-26T12:20:29.306Z,7.28
2022-08-26T12:22:55.679Z,8.88
2022-08-26T12:25:22.171Z,11.30
2022-08-26T12:27:53.104Z,11.38
2022-08-26T12:30:20.182Z,11.82
2022-08-26T12:32:56.649Z,10.20
2022-08-26T12:35:24.644Z,9.10
2022-08-26T12:37:51.126Z,8.82
2022-08-26T12:40:17.758Z,8.88
2022-08-26T12:42:44.183Z,9.52
2022-08-26T12:45:10.472Z,7.72
2022-08-26T12:47:43.343Z,8.00
2022-08-26T12:50:09.961Z,6.97
2022-08-26T12:52:36.304Z,7.57
2022-08-26T12:55:02.833Z,7.53
2022-08-26T12:57:29.120Z,8.70
2022-08-26T12:59:55.452Z,7.00
2022-08-26T13:02:21.802Z,7.95
2022-08-26T13:04:48.113Z,7.38
2022-08-26T13:07:14.521Z,6.20
2022-08-26T13:09:40.900Z,6.90
2022-08-26T13:12:09.412Z,7.45
2022-08-26T13:14:35.740Z,7.53
2022-08-26T13:17:01.959Z,7.32
2022-08-26T13:19:28.217Z,7.40
2022-08-26T13:21:54.692Z,7.65
2022-08-26T13:24:20.983Z,8.10
2022-08-26T13:26:47.407Z,9.18
2022-08-26T13:29:13.764Z,7.97
2022-08-26T13:31:40.139Z,8.40
2022-08-26T13:34:06.397Z,9.27
2022-08-26T13:36:32.673Z,8.45
2022-08-26T13:38:58.909Z,8.57
2022-08-26T13:41:29.405Z,8.48
2022-08-26T13:43:56.215Z,9.88
2022-08-26T13:46:22.792Z,8.75
2022-08-26T13:48:49.131Z,8.05
2022-08-26T13:51:15.353Z,9.23
2022-08-26T13:53:41.653Z,7.32
2022-08-26T13:56:11.057Z,8.48
2022-08-26T13:58:37.519Z,8.65
2022-08-26T14:01:03.884Z,6.57
2022-08-26T14:03:30.373Z,8.40
2022-08-26T14:05:56.864Z,8.15
2022-08-26T14:08:23.151Z,8.30
2022-08-26T14:10:49.480Z,9.32
2022-08-26T14:13:16.088Z,9.48
2022-08-26T14:15:42.606Z,8.50
2022-08-26T14:18:08.904Z,8.68
2022-08-26T14:20:35.231Z,8.82
2022-08-26T14:23:13.569Z,8.63
2022-08-26T14:25:40.409Z,9.90
2022-08-26T14:28:06.750Z,10.20
2022-08-26T14:30:33.047Z,8.10
2022-08-26T14:32:59.370Z,8.45
2022-08-26T14:35:25.645Z,8.48
2022-08-26T14:37:52.077Z,7.72
2022-08-26T14:40:18.502Z,7.43
2022-08-26T14:42:49.529Z,7.82
2022-08-26T14:45:19.517Z,7.28
2022-08-26T14:47:46.032Z,7.80
2022-08-26T14:50:12.409Z,7.10
2022-08-26T14:52:39.405Z,7.38
2022-08-26T14:55:05.753Z,8.38
2022-08-26T14:57:32.048Z,8.40
2022-08-26T14:59:58.544Z,8.00
2022-08-26T15:02:32.871Z,7.53
2022-08-26T15:04:59.953Z,8.13
2022-08-26T15:07:26.384Z,7.88
2022-08-26T15:09:52.666Z,6.47
2022-08-26T15:12:18.898Z,6.35
2022-08-26T15:14:46.045Z,7.82
2022-08-26T15:17:12.347Z,7.47
2022-08-26T15:19:38.836Z,6.45
2022-08-26T15:22:05.072Z,7.00
2022-08-26T15:24:31.355Z,7.30
2022-08-26T15:26:57.705Z,6.97
2022-08-26T15:29:24.029Z,9.85
2022-08-26T15:31:50.255Z,7.80
2022-08-26T15:34:17.284Z,8.00
2022-08-26T15:36:43.609Z,8.45
2022-08-26T15:39:09.856Z,7.53
2022-08-26T15:41:36.209Z,8.13
2022-08-26T15:44:03.440Z,9.13
2022-08-26T15:46:29.938Z,8.10
2022-08-26T15:48:56.608Z,6.97
2022-08-26T15:51:22.928Z,7.82
2022-08-26T15:53:49.271Z,7.18
2022-08-26T15:56:15.596Z,8.43
2022-08-26T15:58:42.344Z,7.55
2022-08-26T16:01:10.907Z,8.77
2022-08-26T16:03:37.156Z,7.40
2022-08-26T16:06:03.503Z,7.55
2022-08-26T16:08:30.125Z,8.75
2022-08-26T16:11:03.918Z,8.55
2022-08-26T16:13:30.289Z,8.63
2022-08-26T16:16:06.292Z,8.45
2022-08-26T16:18:35.104Z,8.77
2022-08-26T16:21:13.406Z,7.60
2022-08-26T16:23:40.364Z,9.33
2022-08-26T16:26:10.690Z,10.05
2022-08-26T16:28:37.144Z,9.07
2022-08-26T16:31:04.786Z,10.77
2022-08-26T16:33:31.379Z,18.45
2022-08-26T16:35:57.750Z,17.95
2022-08-26T16:38:24.088Z,16.55
2022-08-26T16:40:50.528Z,19.30
2022-08-26T16:43:16.889Z,15.60
2022-08-26T16:45:43.232Z,18.77
2022-08-26T16:48:09.722Z,15.10
2022-08-26T16:50:36.186Z,16.88
2022-08-26T16:53:02.504Z,14.88
2022-08-26T16:55:29.164Z,16.02
2022-08-26T16:57:55.487Z,17.85
2022-08-26T17:00:21.895Z,14.63
2022-08-26T17:02:48.379Z,12.85
2022-08-26T17:05:14.811Z,14.70
2022-08-26T17:07:41.092Z,13.65
2022-08-26T17:10:07.502Z,13.23
2022-08-26T17:12:33.756Z,13.23
2022-08-26T17:15:00.003Z,12.68
2022-08-26T17:17:26.222Z,13.65
2022-08-26T17:19:52.553Z,12.70
2022-08-26T17:22:18.954Z,13.00
2022-08-26T17:24:45.214Z,10.75
2022-08-26T17:27:11.498Z,12.80
2022-08-26T17:29:37.777Z,10.50
2022-08-26T17:32:04.007Z,11.73
2022-08-26T17:34:30.322Z,12.35
2022-08-26T17:36:56.849Z,10.88
2022-08-26T17:39:23.324Z,12.43
2022-08-26T17:41:49.612Z,10.75
2022-08-26T17:44:15.981Z,12.55
2022-08-26T17:46:42.718Z,11.52
2022-08-26T17:49:09.073Z,12.77
2022-08-26T17:51:35.567Z,13.48
2022-08-26T17:54:01.820Z,12.10
2022-08-26T17:56:28.198Z,12.70
2022-08-26T17:58:54.491Z,12.55
2022-08-26T18:01:21.535Z,11.68
2022-08-26T18:03:47.994Z,10.75
2022-08-26T18:06:14.430Z,11.88
2022-08-26T18:08:40.893Z,12.43
2022-08-26T18:11:07.251Z,10.82
2022-08-26T18:13:33.859Z,12.43
2022-08-26T18:16:00.171Z,12.73
2022-08-26T18:18:26.743Z,11.77
2022-08-26T18:21:01.735Z,12.55
2022-08-26T18:23:28.601Z,12.70
2022-08-26T18:25:57.832Z,11.68
2022-08-26T18:28:24.122Z,12.40
2022-08-26T18:30:50.704Z,13.88
2022-08-26T18:33:16.991Z,13.18
2022-08-26T18:35:43.392Z,14.48
2022-08-26T18:38:11.095Z,16.80
2022-08-26T18:40:38.156Z,15.60
2022-08-26T18:43:04.620Z,15.27
2022-08-26T18:45:31.192Z,15.80
2022-08-26T18:47:57.749Z,16.80
2022-08-26T18:50:24.355Z,16.52
2022-08-26T18:52:50.951Z,16.02
2022-08-26T18:55:17.398Z,16.70
2022-08-26T18:57:43.725Z,14.77
2022-08-26T19:00:10.173Z,15.30
2022-08-26T19:02:36.617Z,16.70
2022-08-26T19:05:04.600Z,17.10
2022-08-26T19:07:30.941Z,17.17
2022-08-26T19:09:57.256Z,17.70
2022-08-26T19:12:23.532Z,17.88
2022-08-26T19:17:19.658Z,15.00
2022-08-26T19:19:48.907Z,17.10
2022-08-26T19:22:15.192Z,16.25
2022-08-26T19:24:41.537Z,17.27
2022-08-26T19:27:11.659Z,18.05
2022-08-26T19:29:40.567Z,17.73
2022-08-26T19:32:06.879Z,18.45
2022-08-26T19:34:33.362Z,18.23
2022-08-26T19:36:59.580Z,17.95
2022-08-26T19:39:25.963Z,16.95
2022-08-26T19:41:52.345Z,17.38
2022-08-26T19:44:18.611Z,17.60
2022-08-26T19:46:44.905Z,17.90
2022-08-26T19:49:11.266Z,18.65
2022-08-26T19:51:37.896Z,17.00
2022-08-26T19:54:04.211Z,16.77
2022-08-26T19:56:30.789Z,19.67
2022-08-26T19:58:57.145Z,16.55
2022-08-26T20:01:23.490Z,16.75
2022-08-26T20:03:49.902Z,19.05
2022-08-26T20:06:16.165Z,17.55
2022-08-26T20:08:42.477Z,16.92
2022-08-26T20:11:11.657Z,14.73
2022-08-26T20:13:38.089Z,15.75
2022-08-26T20:16:04.433Z,15.73
2022-08-26T20:18:30.764Z,16.08
2022-08-26T20:20:57.223Z,15.15
2022-08-26T20:23:23.538Z,15.80
2022-08-26T20:25:49.989Z,17.80
2022-08-26T20:28:16.328Z,17.70
2022-08-26T20:30:42.548Z,18.48
2022-08-26T20:33:08.934Z,16.20
2022-08-26T20:35:35.260Z,15.30
2022-08-26T20:38:01.609Z,15.45
2022-08-26T20:40:28.013Z,16.05
2022-08-26T20:42:54.381Z,15.30
2022-08-26T20:45:20.836Z,14.35
2022-08-26T20:47:47.172Z,14.48
2022-08-26T20:50:13.448Z,16.98
2022-08-26T20:52:39.906Z,15.15
2022-08-26T20:55:06.219Z,15.43
2022-08-26T20:57:32.559Z,14.68
2022-08-26T20:59:59.188Z,14.40
2022-08-26T21:02:25.696Z,14.88
2022-08-26T21:04:52.211Z,14.75
2022-08-26T21:07:18.594Z,13.82
2022-08-26T21:09:46.166Z,14.20
2022-08-26T21:12:12.557Z,12.00
2022-08-26T21:14:38.946Z,11.77
2022-08-26T21:17:05.228Z,12.35
2022-08-26T21:19:33.994Z,14.82
2022-08-26T21:22:00.264Z,13.68
2022-08-26T21:24:26.536Z,13.52
2022-08-26T21:26:52.827Z,15.90
2022-08-26T21:29:19.134Z,14.90
2022-08-26T21:31:46.714Z,13.20
2022-08-26T21:34:13.277Z,13.68
2022-08-26T21:36:39.588Z,15.10
2022-08-26T21:39:10.771Z,13.90
2022-08-26T21:41:37.975Z,13.95
2022-08-26T21:44:04.281Z,13.95
2022-08-26T21:46:30.586Z,13.27
2022-08-26T21:48:56.866Z,15.02
2022-08-26T21:51:24.227Z,17.95
2022-08-26T21:53:50.573Z,13.93
2022-08-26T21:56:16.959Z,13.82
2022-08-26T21:58:43.279Z,14.10
2022-08-26T22:01:09.651Z,15.40
2022-08-26T22:03:37.808Z,14.60
2022-08-26T22:06:13.496Z,15.10
2022-08-26T22:08:39.834Z,14.30
2022-08-26T22:11:06.138Z,16.52
2022-08-26T22:13:32.541Z,13.68
2022-08-26T22:15:58.809Z,16.05
2022-08-26T22:18:25.177Z,14.18
2022-08-26T22:20:51.534Z,13.15
2022-08-26T22:23:18.059Z,13.68
2022-08-26T22:25:44.344Z,15.10
2022-08-26T22:28:10.741Z,15.07
2022-08-26T22:30:37.481Z,12.80
2022-08-26T22:33:03.836Z,13.23
2022-08-26T22:35:30.113Z,13.98
2022-08-26T22:37:57.141Z,14.55
2022-08-26T22:40:23.651Z,13.63
2022-08-26T22:42:55.637Z,14.23
2022-08-26T22:45:26.351Z,13.43
2022-08-26T22:47:57.013Z,12.57
2022-08-26T22:50:23.317Z,13.05
2022-08-26T22:52:49.647Z,16.05
2022-08-26T22:55:15.948Z,13.60
2022-08-26T22:57:42.255Z,13.23
2022-08-26T23:00:08.796Z,14.32
2022-08-26T23:02:37.724Z,16.03
2022-08-26T23:05:04.170Z,14.70
2022-08-26T23:07:30.486Z,12.70
2022-08-26T23:09:56.699Z,13.93
2022-08-26T23:12:22.942Z,13.73
2022-08-26T23:14:49.171Z,15.10
2022-08-26T23:17:15.447Z,15.40
2022-08-26T23:19:41.763Z,15.55
2022-08-26T23:22:08.102Z,13.40
2022-08-26T23:24:34.448Z,13.68
2022-08-26T23:27:00.744Z,16.20
2022-08-26T23:29:27.147Z,14.48
2022-08-26T23:31:53.578Z,15.55
2022-08-26T23:34:19.923Z,14.70
2022-08-26T23:36:47.018Z,14.80
2022-08-26T23:39:13.329Z,16.40
2022-08-26T23:41:39.677Z,14.75
2022-08-26T23:44:05.971Z,16.02
2022-08-26T23:46:32.296Z,14.48
2022-08-26T23:48:58.580Z,14.00
2022-08-26T23:51:24.877Z,15.55
2022-08-26T23:53:51.194Z,15.15
2022-08-26T23:56:17.643Z,16.85
2022-08-26T23:58:44.073Z,16.10
